createdAt,value
2017-01-20T00:00:24.790Z,1032.48
2017-01-20T00:01:34.309Z,1032.48
2017-01-20T00:02:44.653Z,1032.45
2017-01-20T00:03:55.374Z,1032.44
2017-01-20T00:05:05.683Z,1032.44
2017-01-20T00:06:16.386Z,1032.5
2017-01-20T00:07:26.696Z,1032.49
2017-01-20T00:08:37.007Z,1032.54
2017-01-20T00:09:46.924Z,1032.5
2017-01-20T00:10:56.840Z,1032.5
2017-01-20T00:12:06.360Z,1032.52
2017-01-20T00:13:16.274Z,1032.56
2017-01-20T00:14:26.192Z,1032.53
2017-01-20T00:15:36.506Z,1032.56
2017-01-20T00:16:47.214Z,1032.53
2017-01-20T00:17:57.539Z,1032.53
2017-01-20T00:19:07.852Z,1032.5
2017-01-20T00:20:17.371Z,1032.5
2017-01-20T00:21:27.698Z,1032.51
2017-01-20T00:22:38.022Z,1032.48
2017-01-20T00:23:47.938Z,1032.48
2017-01-20T00:24:58.648Z,1032.46
2017-01-20T00:26:08.956Z,1032.45
2017-01-20T00:27:18.866Z,1032.48
2017-01-20T00:28:29.177Z,1032.45
2017-01-20T00:29:39.487Z,1032.47
2017-01-20T00:30:50.198Z,1032.46
2017-01-20T00:32:00.906Z,1032.44
2017-01-20T00:33:11.647Z,1032.45
2017-01-20T00:34:22.392Z,1032.42
2017-01-20T00:35:32.705Z,1032.41
2017-01-20T00:36:43.454Z,1032.45
2017-01-20T00:37:54.166Z,1032.39
2017-01-20T00:39:04.086Z,1032.41
2017-01-20T00:40:14.395Z,1032.42
2017-01-20T00:41:24.315Z,1032.43
2017-01-20T00:42:35.021Z,1032.39
2017-01-20T00:43:45.741Z,1032.36
2017-01-20T00:44:55.651Z,1032.35
2017-01-20T00:46:06.365Z,1032.29
2017-01-20T00:47:15.897Z,1032.26
2017-01-20T00:48:25.801Z,1032.23
2017-01-20T00:49:36.502Z,1032.2
2017-01-20T00:50:46.412Z,1032.19
2017-01-20T00:51:57.171Z,1032.14
2017-01-20T00:53:07.084Z,1032.17
2017-01-20T00:54:17.782Z,1032.17
2017-01-20T00:55:27.711Z,1032.13
2017-01-20T00:56:37.632Z,1032.15
2017-01-20T00:57:48.348Z,1032.2
2017-01-20T00:58:59.049Z,1032.19
2017-01-20T01:00:09.360Z,1032.17
2017-01-20T01:01:19.270Z,1032.13
2017-01-20T01:02:29.574Z,1032.15
2017-01-20T01:03:40.508Z,1032.13
2017-01-20T01:04:51.206Z,1032.15
2017-01-20T01:06:01.117Z,1032.15
2017-01-20T01:07:10.658Z,1032.15
2017-01-20T01:08:20.976Z,1032.12
2017-01-20T01:09:31.670Z,1032.1
2017-01-20T01:10:41.577Z,1032.1
2017-01-20T01:11:52.287Z,1032.06
2017-01-20T01:13:02.210Z,1032.12
2017-01-20T01:14:11.336Z,1032.1
2017-01-20T01:15:21.669Z,1032.11
2017-01-20T01:16:31.976Z,1032.1
2017-01-20T01:17:42.292Z,1032.07
2017-01-20T01:18:52.209Z,1032.05
2017-01-20T01:20:02.120Z,1032.05
2017-01-20T01:21:12.831Z,1032.03
2017-01-20T01:22:22.749Z,1032.02
2017-01-20T01:23:32.659Z,1031.99
2017-01-20T01:24:42.569Z,1032.04
2017-01-20T01:25:53.283Z,1032.02
2017-01-20T01:27:03.977Z,1032.01
2017-01-20T01:28:13.888Z,1032.02
2017-01-20T01:29:24.207Z,1031.98
2017-01-20T01:30:34.508Z,1032.02
2017-01-20T01:31:45.210Z,1032.03
2017-01-20T01:32:54.733Z,1031.99
2017-01-20T01:34:05.459Z,1032
2017-01-20T01:35:16.157Z,1032
2017-01-20T01:36:26.089Z,1032.01
2017-01-20T01:37:36.803Z,1031.97
2017-01-20T01:38:47.123Z,1031.98
2017-01-20T01:39:57.440Z,1032
2017-01-20T01:41:08.146Z,1031.97
2017-01-20T01:42:17.670Z,1031.95
2017-01-20T01:43:27.183Z,1032
2017-01-20T01:44:37.491Z,1031.92
2017-01-20T01:45:47.801Z,1031.95
2017-01-20T01:46:58.105Z,1031.92
2017-01-20T01:48:08.033Z,1031.91
2017-01-20T01:49:18.347Z,1031.86
2017-01-20T01:50:28.259Z,1031.88
2017-01-20T01:51:38.588Z,1031.88
2017-01-20T01:52:48.899Z,1031.87
2017-01-20T01:53:58.847Z,1031.9
2017-01-20T01:55:08.763Z,1031.9
2017-01-20T01:56:18.684Z,1031.86
2017-01-20T01:57:29.029Z,1031.83
2017-01-20T01:58:39.340Z,1031.84
2017-01-20T01:59:50.044Z,1031.84
2017-01-20T02:00:59.963Z,1031.79
2017-01-20T02:02:10.268Z,1031.78
2017-01-20T02:03:20.981Z,1031.74
2017-01-20T02:04:31.687Z,1031.74
2017-01-20T02:05:41.993Z,1031.7
2017-01-20T02:06:51.903Z,1031.73
2017-01-20T02:08:02.620Z,1031.66
2017-01-20T02:09:12.930Z,1031.71
2017-01-20T02:10:23.248Z,1031.71
2017-01-20T02:11:33.561Z,1031.7
2017-01-20T02:12:43.484Z,1031.7
2017-01-20T02:13:53.395Z,1031.73
2017-01-20T02:15:03.708Z,1031.65
2017-01-20T02:16:14.450Z,1031.63
2017-01-20T02:17:24.764Z,1031.62
2017-01-20T02:18:34.681Z,1031.65
2017-01-20T02:19:44.995Z,1031.67
2017-01-20T02:20:54.908Z,1031.69
2017-01-20T02:22:05.622Z,1031.68
2017-01-20T02:23:15.533Z,1031.67
2017-01-20T02:24:25.437Z,1031.66
2017-01-20T02:25:35.347Z,1031.63
2017-01-20T02:26:45.298Z,1031.65
2017-01-20T02:27:55.619Z,1031.64
2017-01-20T02:29:05.923Z,1031.64
2017-01-20T02:30:16.253Z,1031.63
2017-01-20T02:31:26.166Z,1031.63
2017-01-20T02:32:36.480Z,1031.62
2017-01-20T02:33:46.797Z,1031.55
2017-01-20T02:34:57.107Z,1031.59
2017-01-20T02:36:07.018Z,1031.61
2017-01-20T02:37:16.544Z,1031.57
2017-01-20T02:38:26.486Z,1031.57
2017-01-20T02:39:36.796Z,1031.54
2017-01-20T02:40:47.116Z,1031.54
2017-01-20T02:41:57.027Z,1031.6
2017-01-20T02:43:06.966Z,1031.56
2017-01-20T02:44:17.282Z,1031.56
2017-01-20T02:45:27.196Z,1031.55
2017-01-20T02:46:37.503Z,1031.58
2017-01-20T02:47:47.812Z,1031.59
2017-01-20T02:48:58.140Z,1031.63
2017-01-20T02:50:08.431Z,1031.66
2017-01-20T02:51:17.960Z,1031.59
2017-01-20T02:52:28.271Z,1031.61
2017-01-20T02:53:38.827Z,1031.63
2017-01-20T02:54:49.531Z,1031.64
2017-01-20T02:55:59.441Z,1031.66
2017-01-20T02:57:09.745Z,1031.62
2017-01-20T02:58:18.869Z,1031.62
2017-01-20T02:59:29.175Z,1031.65
2017-01-20T03:00:38.687Z,1031.64
2017-01-20T03:01:48.997Z,1031.63
2017-01-20T03:02:59.310Z,1031.65
2017-01-20T03:04:09.221Z,1031.66
2017-01-20T03:05:19.523Z,1031.67
2017-01-20T03:06:29.829Z,1031.67
2017-01-20T03:07:39.733Z,1031.65
2017-01-20T03:08:50.441Z,1031.7
2017-01-20T03:10:00.741Z,1031.66
2017-01-20T03:11:10.661Z,1031.67
2017-01-20T03:12:20.978Z,1031.71
2017-01-20T03:13:30.519Z,1031.69
2017-01-20T03:14:40.434Z,1031.68
2017-01-20T03:15:51.135Z,1031.64
2017-01-20T03:17:01.476Z,1031.64
2017-01-20T03:18:11.783Z,1031.68
2017-01-20T03:19:21.694Z,1031.65
2017-01-20T03:20:32.395Z,1031.63
2017-01-20T03:21:42.715Z,1031.61
2017-01-20T03:22:53.416Z,1031.63
2017-01-20T03:24:03.730Z,1031.61
2017-01-20T03:25:13.672Z,1031.6
2017-01-20T03:26:23.983Z,1031.55
2017-01-20T03:27:34.696Z,1031.61
2017-01-20T03:28:45.397Z,1031.59
2017-01-20T03:29:55.312Z,1031.6
2017-01-20T03:31:05.227Z,1031.6
2017-01-20T03:32:15.935Z,1031.55
2017-01-20T03:33:26.242Z,1031.57
2017-01-20T03:34:36.943Z,1031.57
2017-01-20T03:35:47.259Z,1031.56
2017-01-20T03:36:57.567Z,1031.56
2017-01-20T03:38:07.089Z,1031.59
2017-01-20T03:39:17.800Z,1031.59
2017-01-20T03:40:27.704Z,1031.6
2017-01-20T03:41:37.612Z,1031.56
2017-01-20T03:42:47.919Z,1031.59
2017-01-20T03:43:57.436Z,1031.57
2017-01-20T03:45:07.354Z,1031.58
2017-01-20T03:46:17.270Z,1031.59
2017-01-20T03:47:27.580Z,1031.59
2017-01-20T03:48:37.884Z,1031.53
2017-01-20T03:49:48.620Z,1031.56
2017-01-20T03:50:58.921Z,1031.59
2017-01-20T03:52:09.039Z,1031.57
2017-01-20T03:53:18.550Z,1031.58
2017-01-20T03:54:28.473Z,1031.57
2017-01-20T03:55:38.784Z,1031.57
2017-01-20T03:56:49.090Z,1031.54
2017-01-20T03:57:59.399Z,1031.53
2017-01-20T03:59:09.705Z,1031.54
2017-01-20T04:00:19.616Z,1031.53
2017-01-20T04:01:29.946Z,1031.54
2017-01-20T04:02:40.265Z,1031.54
2017-01-20T04:03:49.983Z,1031.57
2017-01-20T04:04:59.497Z,1031.54
2017-01-20T04:06:09.816Z,1031.56
2017-01-20T04:07:20.521Z,1031.54
2017-01-20T04:08:31.222Z,1031.53
2017-01-20T04:09:41.532Z,1031.53
2017-01-20T04:10:51.839Z,1031.5
2017-01-20T04:12:01.763Z,1031.51
2017-01-20T04:13:12.066Z,1031.55
2017-01-20T04:14:22.764Z,1031.54
2017-01-20T04:15:33.081Z,1031.5
2017-01-20T04:16:43.394Z,1031.48
2017-01-20T04:17:53.310Z,1031.51
2017-01-20T04:19:03.618Z,1031.48
2017-01-20T04:20:13.921Z,1031.43
2017-01-20T04:21:23.829Z,1031.44
2017-01-20T04:22:34.135Z,1031.42
2017-01-20T04:23:44.049Z,1031.4
2017-01-20T04:24:54.769Z,1031.36
2017-01-20T04:26:04.689Z,1031.37
2017-01-20T04:27:14.213Z,1031.33
2017-01-20T04:28:24.915Z,1031.35
2017-01-20T04:29:35.225Z,1031.32
2017-01-20T04:30:45.541Z,1031.31
2017-01-20T04:31:56.244Z,1031.37
2017-01-20T04:33:06.154Z,1031.4
2017-01-20T04:34:15.669Z,1031.34
2017-01-20T04:35:25.977Z,1031.31
2017-01-20T04:36:35.497Z,1031.33
2017-01-20T04:37:45.810Z,1031.36
2017-01-20T04:38:56.130Z,1031.34
2017-01-20T04:40:06.825Z,1031.31
2017-01-20T04:41:16.354Z,1031.31
2017-01-20T04:42:25.497Z,1031.32
2017-01-20T04:43:35.416Z,1031.35
2017-01-20T04:44:46.123Z,1031.3
2017-01-20T04:45:56.530Z,1031.3
2017-01-20T04:47:06.841Z,1031.33
2017-01-20T04:48:17.494Z,1031.34
2017-01-20T04:49:27.404Z,1031.29
2017-01-20T04:50:37.308Z,1031.38
2017-01-20T04:51:46.828Z,1031.33
2017-01-20T04:52:57.552Z,1031.33
2017-01-20T04:54:08.255Z,1031.38
2017-01-20T04:55:18.947Z,1031.38
2017-01-20T04:56:28.471Z,1031.34
2017-01-20T04:57:38.762Z,1031.35
2017-01-20T04:58:49.479Z,1031.37
2017-01-20T04:59:59.002Z,1031.32
2017-01-20T05:01:09.459Z,1031.3
2017-01-20T05:02:20.176Z,1031.32
2017-01-20T05:03:30.486Z,1031.32
2017-01-20T05:04:41.186Z,1031.3
2017-01-20T05:05:51.885Z,1031.28
2017-01-20T05:07:01.792Z,1031.29
2017-01-20T05:08:12.103Z,1031.33
2017-01-20T05:09:22.404Z,1031.33
2017-01-20T05:10:32.712Z,1031.32
2017-01-20T05:11:43.022Z,1031.35
2017-01-20T05:12:53.729Z,1031.33
2017-01-20T05:14:04.034Z,1031.33
2017-01-20T05:15:13.941Z,1031.33
2017-01-20T05:16:24.647Z,1031.33
2017-01-20T05:17:34.564Z,1031.29
2017-01-20T05:18:45.275Z,1031.35
2017-01-20T05:19:55.970Z,1031.34
2017-01-20T05:21:06.287Z,1031.34
2017-01-20T05:22:16.206Z,1031.34
2017-01-20T05:23:26.910Z,1031.34
2017-01-20T05:24:37.221Z,1031.33
2017-01-20T05:25:47.919Z,1031.27
2017-01-20T05:26:57.826Z,1031.32
2017-01-20T05:28:08.519Z,1031.33
2017-01-20T05:29:19.215Z,1031.27
2017-01-20T05:30:29.523Z,1031.25
2017-01-20T05:31:40.226Z,1031.24
2017-01-20T05:32:50.143Z,1031.28
2017-01-20T05:33:59.660Z,1031.27
2017-01-20T05:35:10.367Z,1031.26
2017-01-20T05:36:20.671Z,1031.29
2017-01-20T05:37:30.976Z,1031.3
2017-01-20T05:38:41.288Z,1031.31
2017-01-20T05:39:51.234Z,1031.33
2017-01-20T05:41:00.765Z,1031.38
2017-01-20T05:42:11.077Z,1031.32
2017-01-20T05:43:21.786Z,1031.31
2017-01-20T05:44:32.489Z,1031.32
2017-01-20T05:45:42.813Z,1031.31
2017-01-20T05:46:53.132Z,1031.32
2017-01-20T05:48:03.437Z,1031.3
2017-01-20T05:49:14.138Z,1031.32
2017-01-20T05:50:24.835Z,1031.27
2017-01-20T05:51:35.840Z,1031.25
2017-01-20T05:52:46.152Z,1031.22
2017-01-20T05:53:56.064Z,1031.26
2017-01-20T05:55:05.984Z,1031.2
2017-01-20T05:56:16.355Z,1031.19
2017-01-20T05:57:27.079Z,1031.2
2017-01-20T05:58:37.396Z,1031.14
2017-01-20T05:59:47.716Z,1031.2
2017-01-20T06:00:58.033Z,1031.1
2017-01-20T06:02:08.346Z,1031.12
2017-01-20T06:03:19.047Z,1031.16
2017-01-20T06:04:29.355Z,1031.13
2017-01-20T06:05:38.880Z,1031.15
2017-01-20T06:06:49.601Z,1031.11
2017-01-20T06:07:59.905Z,1031.09
2017-01-20T06:09:10.606Z,1031.11
2017-01-20T06:10:20.519Z,1031.06
2017-01-20T06:11:30.842Z,1031.07
2017-01-20T06:12:41.553Z,1031.08
2017-01-20T06:13:50.682Z,1031.08
2017-01-20T06:15:00.602Z,1031.1
2017-01-20T06:16:11.322Z,1031.12
2017-01-20T06:17:21.233Z,1031.12
2017-01-20T06:18:31.934Z,1031.09
2017-01-20T06:19:42.248Z,1031.07
2017-01-20T06:20:52.959Z,1031.06
2017-01-20T06:22:03.291Z,1031.1
2017-01-20T06:23:13.237Z,1031.09
2017-01-20T06:24:23.547Z,1031.06
2017-01-20T06:25:33.869Z,1031.08
2017-01-20T06:26:44.199Z,1031.08
2017-01-20T06:27:54.120Z,1031.1
2017-01-20T06:29:03.652Z,1031.08
2017-01-20T06:30:13.570Z,1031.05
2017-01-20T06:31:24.299Z,1031.04
2017-01-20T06:32:34.219Z,1031.07
2017-01-20T06:33:44.526Z,1031.09
2017-01-20T06:34:54.843Z,1031.07
2017-01-20T06:36:05.592Z,1031.06
2017-01-20T06:37:15.931Z,1031.05
2017-01-20T06:38:26.241Z,1031.03
2017-01-20T06:39:36.564Z,1031.07
2017-01-20T06:40:46.487Z,1031.03
2017-01-20T06:41:57.191Z,1031.04
2017-01-20T06:43:07.116Z,1031.1
2017-01-20T06:44:17.123Z,1031.09
2017-01-20T06:45:27.879Z,1031.1
2017-01-20T06:46:37.789Z,1031.13
2017-01-20T06:47:47.310Z,1031.16
2017-01-20T06:48:58.014Z,1031.22
2017-01-20T06:50:07.938Z,1031.2
2017-01-20T06:51:18.242Z,1031.22
2017-01-20T06:52:28.939Z,1031.19
2017-01-20T06:53:38.481Z,1031.23
2017-01-20T06:54:48.401Z,1031.21
2017-01-20T06:55:58.312Z,1031.19
2017-01-20T06:57:08.622Z,1031.19
2017-01-20T06:58:19.332Z,1031.17
2017-01-20T06:59:29.643Z,1031.21
2017-01-20T07:00:39.965Z,1031.18
2017-01-20T07:01:49.478Z,1031.2
2017-01-20T07:03:00.385Z,1031.17
2017-01-20T07:04:10.702Z,1031.2
2017-01-20T07:05:21.406Z,1031.2
2017-01-20T07:06:31.710Z,1031.21
2017-01-20T07:07:42.647Z,1031.22
2017-01-20T07:08:52.955Z,1031.26
2017-01-20T07:10:03.275Z,1031.22
2017-01-20T07:11:12.404Z,1031.22
2017-01-20T07:12:22.308Z,1031.23
2017-01-20T07:13:33.023Z,1031.22
2017-01-20T07:14:43.742Z,1031.25
2017-01-20T07:15:54.062Z,1031.19
2017-01-20T07:17:04.960Z,1031.21
2017-01-20T07:18:14.494Z,1031.22
2017-01-20T07:19:24.439Z,1031.3
2017-01-20T07:20:34.747Z,1031.33
2017-01-20T07:21:44.286Z,1031.32
2017-01-20T07:22:54.207Z,1031.28
2017-01-20T07:24:04.125Z,1031.27
2017-01-20T07:25:13.268Z,1031.3
2017-01-20T07:26:23.588Z,1031.33
2017-01-20T07:27:33.506Z,1031.4
2017-01-20T07:28:44.218Z,1031.39
2017-01-20T07:29:54.542Z,1031.42
2017-01-20T07:31:04.869Z,1031.38
2017-01-20T07:32:15.211Z,1031.39
2017-01-20T07:33:25.245Z,1031.38
2017-01-20T07:34:35.573Z,1031.39
2017-01-20T07:35:45.493Z,1031.38
2017-01-20T07:36:55.415Z,1031.41
2017-01-20T07:38:06.143Z,1031.43
2017-01-20T07:39:16.068Z,1031.38
2017-01-20T07:40:26.431Z,1031.39
2017-01-20T07:41:37.139Z,1031.38
2017-01-20T07:42:47.133Z,1031.41
2017-01-20T07:43:56.674Z,1031.45
2017-01-20T07:45:07.010Z,1031.37
2017-01-20T07:46:17.317Z,1031.35
2017-01-20T07:47:28.034Z,1031.35
2017-01-20T07:48:38.760Z,1031.32
2017-01-20T07:49:49.503Z,1031.33
2017-01-20T07:51:00.236Z,1031.31
2017-01-20T07:52:10.159Z,1031.35
2017-01-20T07:53:20.894Z,1031.32
2017-01-20T07:54:31.244Z,1031.31
2017-01-20T07:55:41.992Z,1031.32
2017-01-20T07:56:52.328Z,1031.3
2017-01-20T07:58:03.039Z,1031.3
2017-01-20T07:59:13.752Z,1031.39
2017-01-20T08:00:24.072Z,1031.37
2017-01-20T08:01:33.587Z,1031.41
2017-01-20T08:02:44.148Z,1031.37
2017-01-20T08:03:54.053Z,1031.45
2017-01-20T08:05:03.975Z,1031.46
2017-01-20T08:06:14.301Z,1031.49
2017-01-20T08:07:24.621Z,1031.47
2017-01-20T08:08:34.934Z,1031.44
2017-01-20T08:09:45.668Z,1031.45
2017-01-20T08:10:56.035Z,1031.42
2017-01-20T08:12:06.006Z,1031.39
2017-01-20T08:13:15.700Z,1031.4
2017-01-20T08:14:26.432Z,1031.35
2017-01-20T08:15:36.735Z,1031.42
2017-01-20T08:16:47.449Z,1031.46
2017-01-20T08:17:57.775Z,1031.47
2017-01-20T08:19:07.700Z,1031.43
2017-01-20T08:20:18.024Z,1031.47
2017-01-20T08:21:28.743Z,1031.45
2017-01-20T08:22:39.472Z,1031.45
2017-01-20T08:23:49.793Z,1031.49
2017-01-20T08:25:00.106Z,1031.56
2017-01-20T08:26:10.436Z,1031.56
2017-01-20T08:27:20.764Z,1031.51
2017-01-20T08:28:30.288Z,1031.51
2017-01-20T08:29:40.217Z,1031.49
2017-01-20T08:30:50.953Z,1031.53
2017-01-20T08:32:01.657Z,1031.49
2017-01-20T08:33:11.594Z,1031.58
2017-01-20T08:34:22.299Z,1031.59
2017-01-20T08:35:32.218Z,1031.52
2017-01-20T08:36:42.552Z,1031.44
2017-01-20T08:37:52.478Z,1031.4
2017-01-20T08:39:02.814Z,1031.39
2017-01-20T08:40:13.150Z,1031.41
2017-01-20T08:41:23.891Z,1031.47
2017-01-20T08:42:34.212Z,1031.51
2017-01-20T08:43:44.931Z,1031.45
2017-01-20T08:44:55.655Z,1031.46
2017-01-20T08:46:05.604Z,1031.36
2017-01-20T08:47:16.392Z,1031.47
2017-01-20T08:48:26.370Z,1031.43
2017-01-20T08:49:37.123Z,1031.43
2017-01-20T08:50:47.496Z,1031.46
2017-01-20T08:51:57.829Z,1031.47
2017-01-20T08:53:08.563Z,1031.47
2017-01-20T08:54:18.904Z,1031.44
2017-01-20T08:55:28.858Z,1031.49
2017-01-20T08:56:38.390Z,1031.51
2017-01-20T08:57:49.116Z,1031.54
2017-01-20T08:58:59.040Z,1031.63
2017-01-20T09:00:09.779Z,1031.59
2017-01-20T09:01:19.721Z,1031.57
2017-01-20T09:02:30.077Z,1031.52
2017-01-20T09:03:40.023Z,1031.55
2017-01-20T09:04:50.365Z,1031.55
2017-01-20T09:06:01.136Z,1031.54
2017-01-20T09:07:11.865Z,1031.5
2017-01-20T09:08:22.608Z,1031.49
2017-01-20T09:09:32.935Z,1031.52
2017-01-20T09:10:43.251Z,1031.47
2017-01-20T09:11:53.194Z,1031.43
2017-01-20T09:13:03.922Z,1031.42
2017-01-20T09:14:14.653Z,1031.49
2017-01-20T09:15:24.985Z,1031.47
2017-01-20T09:16:35.381Z,1031.4
2017-01-20T09:17:46.119Z,1031.44
2017-01-20T09:18:56.493Z,1031.46
2017-01-20T09:20:07.249Z,1031.41
2017-01-20T09:21:18.020Z,1031.42
2017-01-20T09:22:28.387Z,1031.38
2017-01-20T09:23:38.743Z,1031.34
2017-01-20T09:24:49.476Z,1031.33
2017-01-20T09:25:59.447Z,1031.34
2017-01-20T09:27:09.398Z,1031.3
2017-01-20T09:28:19.753Z,1031.3
2017-01-20T09:29:30.470Z,1031.32
2017-01-20T09:30:40.400Z,1031.38
2017-01-20T09:31:50.935Z,1031.35
2017-01-20T09:33:01.278Z,1031.36
2017-01-20T09:34:11.213Z,1031.41
2017-01-20T09:35:21.930Z,1031.4
2017-01-20T09:36:32.673Z,1031.43
2017-01-20T09:37:42.996Z,1031.39
2017-01-20T09:38:52.957Z,1031.38
2017-01-20T09:40:03.286Z,1031.4
2017-01-20T09:41:13.228Z,1031.44
2017-01-20T09:42:23.970Z,1031.43
2017-01-20T09:43:34.685Z,1031.44
2017-01-20T09:44:45.415Z,1031.42
2017-01-20T09:45:56.171Z,1031.41
2017-01-20T09:47:06.904Z,1031.41
2017-01-20T09:48:18.395Z,1031.38
2017-01-20T09:49:29.066Z,1031.4
2017-01-20T09:50:40.395Z,1031.41
2017-01-20T09:51:51.319Z,1031.46
2017-01-20T09:53:01.290Z,1031.45
2017-01-20T09:54:11.232Z,1031.47
2017-01-20T09:55:22.180Z,1031.42
2017-01-20T09:56:32.607Z,1031.39
2017-01-20T09:57:42.542Z,1031.43
2017-01-20T09:58:52.872Z,1031.35
2017-01-20T10:00:03.245Z,1031.43
2017-01-20T10:01:13.995Z,1031.44
2017-01-20T10:02:24.325Z,1031.4
2017-01-20T10:03:34.265Z,1031.43
2017-01-20T10:04:44.217Z,1031.4
2017-01-20T10:05:54.968Z,1031.44
2017-01-20T10:07:05.311Z,1031.46
2017-01-20T10:08:15.694Z,1031.46
2017-01-20T10:09:26.029Z,1031.43
2017-01-20T10:10:35.557Z,1031.45
2017-01-20T10:11:45.920Z,1031.44
2017-01-20T10:12:56.258Z,1031.48
2017-01-20T10:14:06.586Z,1031.44
2017-01-20T10:15:17.315Z,1031.47
2017-01-20T10:16:28.028Z,1031.49
2017-01-20T10:17:38.774Z,1031.46
2017-01-20T10:18:49.088Z,1031.52
2017-01-20T10:19:59.026Z,1031.46
2017-01-20T10:21:08.965Z,1031.46
2017-01-20T10:22:19.695Z,1031.47
2017-01-20T10:23:30.041Z,1031.44
2017-01-20T10:24:40.787Z,1031.44
2017-01-20T10:25:50.738Z,1031.42
2017-01-20T10:27:01.081Z,1031.48
2017-01-20T10:28:10.613Z,1031.46
2017-01-20T10:29:20.955Z,1031.46
2017-01-20T10:30:31.701Z,1031.44
2017-01-20T10:31:42.409Z,1031.41
2017-01-20T10:32:53.130Z,1031.37
2017-01-20T10:34:03.861Z,1031.31
2017-01-20T10:35:14.245Z,1031.31
2017-01-20T10:36:25.202Z,1031.31
2017-01-20T10:37:35.528Z,1031.33
2017-01-20T10:38:45.483Z,1031.34
2017-01-20T10:39:56.296Z,1031.32
2017-01-20T10:41:06.238Z,1031.3
2017-01-20T10:42:17.016Z,1031.3
2017-01-20T10:43:27.746Z,1031.29
2017-01-20T10:44:38.084Z,1031.19
2017-01-20T10:45:48.802Z,1031.21
2017-01-20T10:46:59.142Z,1031.16
2017-01-20T10:48:08.691Z,1031.18
2017-01-20T10:49:19.045Z,1031.19
2017-01-20T10:50:29.385Z,1031.18
2017-01-20T10:51:39.724Z,1031.17
2017-01-20T10:52:49.647Z,1031.16
2017-01-20T10:53:59.990Z,1031.12
2017-01-20T10:55:10.732Z,1031.11
2017-01-20T10:56:21.084Z,1031.1
2017-01-20T10:57:31.849Z,1031.07
2017-01-20T10:58:42.181Z,1031.15
2017-01-20T10:59:52.102Z,1031.13
2017-01-20T11:01:02.819Z,1031.11
2017-01-20T11:02:13.549Z,1031.12
2017-01-20T11:03:23.484Z,1031.13
2017-01-20T11:04:34.218Z,1031.14
2017-01-20T11:05:44.182Z,1031.11
2017-01-20T11:06:54.518Z,1031.12
2017-01-20T11:08:05.255Z,1031.05
2017-01-20T11:09:15.193Z,1031.04
2017-01-20T11:10:25.571Z,1031.04
2017-01-20T11:11:35.494Z,1031.06
2017-01-20T11:12:45.812Z,1031.04
2017-01-20T11:13:55.341Z,1031.07
2017-01-20T11:15:05.264Z,1031.05
2017-01-20T11:16:15.984Z,1031
2017-01-20T11:17:26.323Z,1031
2017-01-20T11:18:37.037Z,1031.01
2017-01-20T11:19:47.740Z,1031
2017-01-20T11:20:57.677Z,1031.03
2017-01-20T11:22:08.026Z,1031
2017-01-20T11:23:18.347Z,1030.99
2017-01-20T11:24:28.685Z,1030.97
2017-01-20T11:25:39.018Z,1030.98
2017-01-20T11:26:49.725Z,1030.98
2017-01-20T11:28:00.071Z,1031.03
2017-01-20T11:29:10.813Z,1031.02
2017-01-20T11:30:21.555Z,1031.03
2017-01-20T11:31:32.272Z,1030.95
2017-01-20T11:32:42.986Z,1030.95
2017-01-20T11:33:53.714Z,1030.95
2017-01-20T11:35:04.038Z,1030.92
2017-01-20T11:36:14.782Z,1030.94
2017-01-20T11:37:25.531Z,1030.9
2017-01-20T11:38:34.263Z,1030.96
2017-01-20T11:39:44.199Z,1030.98
2017-01-20T11:40:54.943Z,1030.93
2017-01-20T11:42:05.281Z,1030.89
2017-01-20T11:43:15.217Z,1030.86
2017-01-20T11:44:25.944Z,1030.85
2017-01-20T11:45:36.689Z,1030.87
2017-01-20T11:46:47.016Z,1030.84
2017-01-20T11:47:56.945Z,1030.85
2017-01-20T11:49:06.887Z,1030.82
2017-01-20T11:50:17.221Z,1030.82
2017-01-20T11:51:27.575Z,1030.75
2017-01-20T11:52:38.305Z,1030.75
2017-01-20T11:53:48.696Z,1030.72
2017-01-20T11:54:59.019Z,1030.71
2017-01-20T11:56:09.371Z,1030.7
2017-01-20T11:57:19.697Z,1030.71
2017-01-20T11:58:29.624Z,1030.67
2017-01-20T11:59:39.949Z,1030.67
2017-01-20T12:00:49.893Z,1030.72
2017-01-20T12:02:00.229Z,1030.71
2017-01-20T12:03:10.599Z,1030.66
2017-01-20T12:04:21.323Z,1030.73
2017-01-20T12:05:31.255Z,1030.64
2017-01-20T12:06:41.584Z,1030.68
2017-01-20T12:07:51.908Z,1030.62
2017-01-20T12:09:02.296Z,1030.59
2017-01-20T12:10:13.320Z,1030.6
2017-01-20T12:11:23.673Z,1030.56
2017-01-20T12:12:34.058Z,1030.57
2017-01-20T12:13:44.842Z,1030.58
2017-01-20T12:14:54.769Z,1030.6
2017-01-20T12:16:05.498Z,1030.61
2017-01-20T12:17:16.269Z,1030.5
2017-01-20T12:18:26.612Z,1030.54
2017-01-20T12:19:37.383Z,1030.58
2017-01-20T12:20:47.723Z,1030.54
2017-01-20T12:21:58.303Z,1030.54
2017-01-20T12:23:09.075Z,1030.59
2017-01-20T12:24:19.034Z,1030.61
2017-01-20T12:25:29.393Z,1030.52
2017-01-20T12:26:39.751Z,1030.53
2017-01-20T12:27:50.087Z,1030.56
2017-01-20T12:29:00.416Z,1030.53
2017-01-20T12:30:10.941Z,1030.52
2017-01-20T12:31:21.698Z,1030.51
2017-01-20T12:32:32.423Z,1030.47
2017-01-20T12:33:43.164Z,1030.51
2017-01-20T12:34:53.530Z,1030.47
2017-01-20T12:36:04.148Z,1030.45
2017-01-20T12:37:14.529Z,1030.39
2017-01-20T12:38:24.872Z,1030.4
2017-01-20T12:39:35.232Z,1030.4
2017-01-20T12:40:45.979Z,1030.36
2017-01-20T12:41:56.736Z,1030.35
2017-01-20T12:43:07.083Z,1030.34
2017-01-20T12:44:17.421Z,1030.27
2017-01-20T12:45:26.990Z,1030.29
2017-01-20T12:46:37.718Z,1030.29
2017-01-20T12:47:48.065Z,1030.3
2017-01-20T12:48:58.430Z,1030.35
2017-01-20T12:50:08.756Z,1030.34
2017-01-20T12:51:19.504Z,1030.29
2017-01-20T12:52:30.266Z,1030.28
2017-01-20T12:53:41.009Z,1030.25
2017-01-20T12:54:51.730Z,1030.21
2017-01-20T12:56:01.669Z,1030.3
2017-01-20T12:57:12.005Z,1030.27
2017-01-20T12:58:21.944Z,1030.27
2017-01-20T12:59:31.880Z,1030.3
2017-01-20T13:00:42.216Z,1030.28
2017-01-20T13:01:52.935Z,1030.3
2017-01-20T13:03:02.879Z,1030.28
2017-01-20T13:04:13.205Z,1030.27
2017-01-20T13:05:23.549Z,1030.29
2017-01-20T13:06:33.494Z,1030.25
2017-01-20T13:07:43.447Z,1030.23
2017-01-20T13:08:53.841Z,1030.24
2017-01-20T13:10:04.223Z,1030.27
2017-01-20T13:11:14.562Z,1030.23
2017-01-20T13:12:25.289Z,1030.23
2017-01-20T13:13:34.822Z,1030.2
2017-01-20T13:14:45.544Z,1030.21
2017-01-20T13:15:55.859Z,1030.17
2017-01-20T13:17:06.198Z,1030.17
2017-01-20T13:18:15.739Z,1030.16
2017-01-20T13:19:26.473Z,1030.15
2017-01-20T13:20:37.209Z,1030.25
2017-01-20T13:21:47.555Z,1030.22
2017-01-20T13:22:57.888Z,1030.24
2017-01-20T13:24:08.626Z,1030.22
2017-01-20T13:25:19.369Z,1030.21
2017-01-20T13:26:29.712Z,1030.23
2017-01-20T13:27:40.437Z,1030.2
2017-01-20T13:28:50.374Z,1030.26
2017-01-20T13:30:01.103Z,1030.27
2017-01-20T13:31:11.435Z,1030.26
2017-01-20T13:32:20.974Z,1030.21
2017-01-20T13:33:31.295Z,1030.18
2017-01-20T13:34:41.707Z,1030.21
2017-01-20T13:35:52.043Z,1030.24
2017-01-20T13:37:02.812Z,1030.24
2017-01-20T13:38:13.136Z,1030.21
2017-01-20T13:39:23.062Z,1030.15
2017-01-20T13:40:33.509Z,1030.14
2017-01-20T13:41:43.865Z,1030.18
2017-01-20T13:42:54.598Z,1030.18
2017-01-20T13:44:04.527Z,1030.12
2017-01-20T13:45:14.857Z,1030.13
2017-01-20T13:46:25.187Z,1030.09
2017-01-20T13:47:35.513Z,1030.13
2017-01-20T13:48:46.230Z,1030.1
2017-01-20T13:49:56.556Z,1030.09
2017-01-20T13:51:06.902Z,1030.1
2017-01-20T13:52:17.628Z,1030.11
2017-01-20T13:53:27.961Z,1030.08
2017-01-20T13:54:38.297Z,1030.1
2017-01-20T13:55:48.220Z,1030.08
2017-01-20T13:56:58.980Z,1030.05
2017-01-20T13:58:09.710Z,1030.07
2017-01-20T13:59:19.254Z,1030.07
2017-01-20T14:00:29.980Z,1030.04
2017-01-20T14:01:40.716Z,1030.05
2017-01-20T14:02:51.034Z,1030.07
2017-01-20T14:04:00.982Z,1030.07
2017-01-20T14:05:11.331Z,1030.04
2017-01-20T14:06:21.654Z,1030.09
2017-01-20T14:07:31.990Z,1030.09
2017-01-20T14:08:41.950Z,1030.03
2017-01-20T14:09:52.675Z,1030.02
2017-01-20T14:11:03.015Z,1030.02
2017-01-20T14:12:13.824Z,1030.07
2017-01-20T14:13:24.578Z,1030.07